Monroe, Nebraska
Current Conditions -  °F | °C
As of 4:15 AM on Friday 31 Oct 2014 (Local Time) from KBVN Reporting Station
Broken Clouds Broken Clouds  
Wind Chill: 23°   Ceiling: 2400
Heat Index: 32°   Visibility: 10mi
Dew Point: 21°   Wind: 12mph
Humidity: 64%   Direction: 10°N
Pressure: 30.51"   Gusts: 22mph
Location:  41.47°N, 97.6°W
Report Text: KBVN 310915Z AUTO 01010G19KT 10SM BKN024 BKN065 00/M06 A3051 RMK AO2 T10021063
Loading
Personal Weather Stations






























Interactive Weather Map New forecast layout! Learn more

10-Day Weather Forecast

Advertisements
Track Severe Weather on mobile